Grain Valley, Missouri
Current Conditions -  °F | °C
As of 4:23 AM on Monday 22 Dec 2014 (Local Time) from KLXT Reporting Station
Overcast Overcast  
Wind Chill: 35°   Ceiling: 2400
Heat Index: 41°   Visibility: 8mi
Dew Point: 39°   Wind: 9mph
Humidity: 93%   Direction: 140°SE
Pressure: 29.65"   Gusts: NA
Location:  39.02°N, 94.2°W
Report Text: KLXT 221023Z AUTO 14008KT 8SM SCT012 BKN024 OVC031 05/04 A2965 RMK AO2 RAB0957E23 P0000 T00500039 TSNO
Loading
Personal Weather Stations






























Interactive Weather Map New forecast layout! Learn more

10-Day Weather Forecast

Advertisements
Track Severe Weather on mobile